Time;durP1;ratioP1;P1;durP2;ratioP2;P2;SDS_P1;SDS_P2;PMS_P1;PMS_P2;Temp;Humidity;BMP_temperature;BMP_pressure;BME280_temperature;BME280_humidity;BME280_pressure;Samples;Min_cycle;Max_cycle;Signal;HPM_P1;HPM_P2
2023/06/08 00:00:09;;;;;;;4.43;3.65;;;23.80;68.20;;;;;;6202061;28;82318;-66
2023/06/08 00:03:12;;;;;;;4.88;3.55;;;23.80;68.10;;;;;;6181604;28;80511;-62
2023/06/08 00:06:13;;;;;;;4.50;3.40;;;23.80;68.10;;;;;;6200396;28;80612;-67
2023/06/08 00:09:14;;;;;;;4.18;3.63;;;23.80;68.00;;;;;;6203548;28;80647;-67
2023/06/08 00:12:16;;;;;;;3.90;3.08;;;23.80;67.90;;;;;;6201388;28;80461;-68
2023/06/08 00:15:17;;;;;;;3.42;3.13;;;23.80;67.80;;;;;;6202648;28;80260;-68
2023/06/08 00:18:18;;;;;;;5.50;3.97;;;23.80;67.70;;;;;;6204250;28;81083;-67
2023/06/08 00:21:18;;;;;;;4.95;3.50;;;23.80;68.20;;;;;;6203455;28;80860;-69
2023/06/08 00:24:19;;;;;;;4.03;3.13;;;23.80;67.70;;;;;;6192103;28;80747;-71
2023/06/08 00:27:20;;;;;;;4.03;3.50;;;23.80;67.70;;;;;;6195210;28;80385;-70
2023/06/08 00:30:20;;;;;;;4.57;3.33;;;23.80;67.90;;;;;;6186625;28;80501;-69
2023/06/08 00:33:21;;;;;;;4.45;3.58;;;23.80;67.60;;;;;;6189919;28;82158;-68
2023/06/08 00:36:23;;;;;;;4.07;3.65;;;23.80;67.70;;;;;;6183149;28;81189;-68
2023/06/08 00:39:23;;;;;;;5.90;3.70;;;23.80;67.60;;;;;;6172639;28;83454;-64
2023/06/08 00:42:24;;;;;;;4.40;3.15;;;23.80;67.70;;;;;;6185650;28;81649;-65
2023/06/08 00:45:25;;;;;;;5.18;3.60;;;23.80;67.50;;;;;;6200415;28;81657;-62
2023/06/08 00:48:27;;;;;;;4.05;3.30;;;23.80;67.40;;;;;;6203031;28;81217;-62
2023/06/08 00:51:27;;;;;;;4.10;3.20;;;23.80;67.50;;;;;;6204011;28;81335;-64
2023/06/08 00:54:30;;;;;;;4.13;3.30;;;23.80;68.00;;;;;;6175580;28;81785;-64
2023/06/08 00:57:33;;;;;;;3.80;3.40;;;23.80;67.40;;;;;;6197088;28;81410;-63
2023/06/08 01:00:33;;;;;;;4.40;3.50;;;23.80;67.30;;;;;;6185595;28;83383;-67
2023/06/08 01:03:35;;;;;;;4.32;3.63;;;23.80;67.30;;;;;;6203236;28;81348;-63
2023/06/08 01:06:36;;;;;;;4.15;3.42;;;23.80;67.30;;;;;;6184081;28;83230;-65
2023/06/08 01:09:36;;;;;;;4.53;3.53;;;23.80;67.40;;;;;;6203365;28;80214;-64
2023/06/08 01:12:37;;;;;;;4.55;3.80;;;23.80;67.30;;;;;;6200766;28;80594;-65
2023/06/08 01:15:37;;;;;;;5.85;3.30;;;23.80;67.40;;;;;;6193096;28;81831;-65
2023/06/08 01:18:38;;;;;;;5.32;3.20;;;23.80;67.40;;;;;;6174772;28;81835;-64
2023/06/08 01:21:39;;;;;;;5.10;3.70;;;23.80;67.30;;;;;;6199449;28;80299;-66
2023/06/08 01:24:39;;;;;;;5.38;3.70;;;23.80;67.30;;;;;;6202600;28;81396;-66
2023/06/08 01:27:40;;;;;;;4.60;4.00;;;23.80;67.40;;;;;;6177930;28;81527;-66
2023/06/08 01:30:41;;;;;;;6.55;3.75;;;23.80;67.10;;;;;;6187069;28;83006;-65
2023/06/08 01:33:41;;;;;;;5.38;3.90;;;23.80;67.20;;;;;;6203465;28;80818;-66
2023/06/08 01:36:42;;;;;;;5.55;4.18;;;23.80;67.20;;;;;;6202214;28;81692;-66
2023/06/08 01:39:42;;;;;;;6.75;4.63;;;23.80;67.30;;;;;;6194243;28;80700;-64
2023/06/08 01:42:43;;;;;;;5.10;4.03;;;23.80;67.30;;;;;;6192392;28;80648;-66
2023/06/08 01:45:44;;;;;;;5.03;4.10;;;23.80;67.30;;;;;;6177078;28;80447;-65
2023/06/08 01:48:45;;;;;;;6.38;4.40;;;23.80;67.30;;;;;;6180843;28;83481;-65
2023/06/08 01:51:45;;;;;;;6.15;4.47;;;23.80;67.10;;;;;;6198845;28;80470;-68
2023/06/08 01:54:46;;;;;;;6.43;4.45;;;23.80;67.10;;;;;;6184154;28;83318;-68
2023/06/08 01:57:46;;;;;;;7.18;4.25;;;23.80;67.10;;;;;;6183345;28;81427;-69
2023/06/08 02:00:47;;;;;;;5.80;4.50;;;23.80;67.20;;;;;;6182409;28;83243;-67
2023/06/08 02:03:47;;;;;;;5.57;4.20;;;23.80;67.10;;;;;;6171050;28;82501;-68
2023/06/08 02:06:48;;;;;;;5.97;4.50;;;23.80;67.20;;;;;;6176641;28;86477;-68
2023/06/08 02:09:49;;;;;;;12.18;4.95;;;23.80;67.10;;;;;;6200297;28;80649;-68
2023/06/08 02:12:49;;;;;;;5.88;4.43;;;23.80;67.20;;;;;;6171630;28;81245;-67
2023/06/08 02:15:51;;;;;;;6.18;4.43;;;23.80;67.10;;;;;;6165687;28;83081;-67
2023/06/08 02:18:52;;;;;;;20.05;5.00;;;23.80;67.30;;;;;;6192122;28;80558;-67
2023/06/08 02:21:53;;;;;;;6.13;4.53;;;23.80;67.40;;;;;;6201657;28;80387;-67
2023/06/08 02:24:53;;;;;;;9.95;4.93;;;23.80;67.30;;;;;;6191085;28;81019;-67
2023/06/08 02:27:55;;;;;;;6.15;4.55;;;23.70;67.30;;;;;;6200628;28;80280;-67
2023/06/08 02:30:55;;;;;;;7.18;4.97;;;23.80;67.50;;;;;;6201354;28;80335;-63
2023/06/08 02:33:56;;;;;;;9.10;5.35;;;23.80;67.40;;;;;;6201204;28;82584;-64
2023/06/08 02:36:57;;;;;;;10.60;6.32;;;23.80;67.40;;;;;;6199265;28;80894;-64
2023/06/08 02:39:58;;;;;;;13.43;6.25;;;23.70;67.40;;;;;;6181126;28;81662;-63
2023/06/08 02:43:04;;;;;;;9.40;5.35;;;23.70;67.40;;;;;;6182931;28;81857;-62
2023/06/08 02:46:05;;;;;;;11.52;6.07;;;23.70;67.40;;;;;;6183932;28;83226;-63
2023/06/08 02:49:06;;;;;;;13.73;7.00;;;23.70;67.40;;;;;;6171926;28;82831;-67
2023/06/08 02:52:07;;;;;;;11.90;6.18;;;23.80;67.30;;;;;;6182898;28;82967;-67
2023/06/08 02:55:07;;;;;;;16.75;7.07;;;23.80;67.60;;;;;;6182245;28;83535;-66
2023/06/08 02:58:09;;;;;;;13.27;6.45;;;23.80;67.40;;;;;;6182972;28;82248;-68
2023/06/08 03:01:14;;;;;;;12.23;5.95;;;23.80;67.30;;;;;;6182190;28;83125;-65
2023/06/08 03:04:37;;;;;;;16.27;8.13;;;23.80;67.40;;;;;;6199296;28;82596;-63
2023/06/08 03:07:42;;;;;;;12.35;7.05;;;23.80;67.40;;;;;;6182600;28;83160;-65
2023/06/08 03:10:44;;;;;;;17.70;8.60;;;23.80;67.50;;;;;;6180025;28;81271;-65
2023/06/08 03:13:45;;;;;;;15.85;7.80;;;23.80;67.70;;;;;;6182489;28;82191;-66
2023/06/08 03:16:45;;;;;;;16.65;8.07;;;23.80;67.60;;;;;;6199875;28;80782;-65
2023/06/08 03:19:46;;;;;;;12.90;7.22;;;23.80;67.70;;;;;;6183487;28;81562;-64
2023/06/08 03:22:50;;;;;;;14.88;8.10;;;23.80;67.60;;;;;;6176572;28;83489;-64
2023/06/08 03:25:52;;;;;;;13.63;7.63;;;23.80;67.80;;;;;;6189237;28;80352;-68
2023/06/08 03:28:53;;;;;;;18.10;8.43;;;23.80;67.70;;;;;;6189700;28;83228;-65
2023/06/08 03:31:53;;;;;;;19.35;9.73;;;23.70;67.60;;;;;;6195706;28;81087;-66
2023/06/08 03:34:56;;;;;;;17.65;8.45;;;23.80;67.50;;;;;;6181379;28;83498;-71
2023/06/08 03:37:57;;;;;;;18.38;8.77;;;23.70;67.60;;;;;;6181047;28;83421;-66
2023/06/08 03:40:58;;;;;;;15.20;8.80;;;23.80;67.60;;;;;;6174964;28;82990;-66
2023/06/08 03:43:59;;;;;;;16.88;8.95;;;23.70;67.60;;;;;;6175330;28;83443;-66
2023/06/08 03:47:02;;;;;;;17.33;9.50;;;23.70;67.70;;;;;;6169794;28;80572;-65
2023/06/08 03:50:06;;;;;;;19.95;9.55;;;23.70;67.70;;;;;;6179899;28;83651;-65
2023/06/08 03:53:07;;;;;;;18.42;10.05;;;23.70;67.70;;;;;;6199670;28;80994;-64
2023/06/08 03:56:08;;;;;;;16.15;9.05;;;23.70;67.70;;;;;;6196092;28;83133;-67
2023/06/08 03:59:12;;;;;;;17.40;9.35;;;23.70;67.80;;;;;;6176830;28;84574;-68
2023/06/08 04:02:13;;;;;;;19.50;9.75;;;23.70;67.60;;;;;;6176870;28;80333;-68
2023/06/08 04:05:13;;;;;;;19.63;11.07;;;23.70;67.70;;;;;;6185027;28;82055;-69
2023/06/08 04:08:14;;;;;;;17.85;9.60;;;23.70;67.70;;;;;;6189018;28;85211;-66
2023/06/08 04:11:15;;;;;;;20.75;10.48;;;23.70;67.70;;;;;;6185769;28;85962;-68
2023/06/08 04:14:16;;;;;;;19.42;10.20;;;23.70;67.70;;;;;;6182306;28;83124;-65
2023/06/08 04:17:17;;;;;;;19.33;10.68;;;23.80;67.90;;;;;;6181827;28;85740;-66
2023/06/08 04:20:18;;;;;;;20.60;10.32;;;23.80;68.00;;;;;;6198789;28;82853;-65
2023/06/08 04:23:19;;;;;;;22.63;10.68;;;23.80;67.70;;;;;;6181419;28;85788;-65
2023/06/08 04:26:20;;;;;;;17.33;9.77;;;23.80;67.60;;;;;;6181732;28;86187;-67
2023/06/08 04:29:21;;;;;;;21.30;9.65;;;23.70;67.60;;;;;;6194415;28;82994;-67
2023/06/08 04:32:22;;;;;;;19.48;10.55;;;23.80;67.70;;;;;;6185567;28;83204;-66
2023/06/08 04:35:22;;;;;;;18.30;9.82;;;23.80;67.70;;;;;;6200302;28;82663;-64
2023/06/08 04:38:25;;;;;;;21.50;9.73;;;23.80;67.50;;;;;;6183921;28;84852;-69
2023/06/08 04:41:25;;;;;;;17.55;9.27;;;23.80;67.50;;;;;;6174567;28;86905;-62
2023/06/08 04:44:33;;;;;;;17.88;9.25;;;23.80;67.60;;;;;;6177434;28;82956;-65
2023/06/08 04:47:35;;;;;;;16.85;9.15;;;23.80;67.70;;;;;;6176076;28;82272;-65
2023/06/08 04:50:37;;;;;;;12.98;7.93;;;23.80;67.60;;;;;;6185508;28;81261;-67
2023/06/08 04:53:38;;;;;;;16.90;8.90;;;23.80;67.40;;;;;;6175219;28;81592;-69
2023/06/08 04:56:41;;;;;;;13.45;7.75;;;23.80;67.50;;;;;;6172907;28;83479;-62
2023/06/08 04:59:41;;;;;;;14.65;8.90;;;23.80;67.60;;;;;;6186554;28;80594;-63
2023/06/08 05:02:43;;;;;;;15.98;8.82;;;23.80;67.50;;;;;;6183352;28;81756;-60
2023/06/08 05:05:43;;;;;;;12.45;8.70;;;23.80;67.50;;;;;;6194833;28;80288;-61
2023/06/08 05:08:44;;;;;;;14.00;8.55;;;23.80;67.50;;;;;;6177852;28;82471;-61
2023/06/08 05:11:45;;;;;;;15.10;8.15;;;23.80;67.50;;;;;;6173643;28;81166;-62
2023/06/08 05:14:45;;;;;;;12.75;7.88;;;23.80;67.40;;;;;;6177673;28;81243;-60
2023/06/08 05:17:46;;;;;;;15.65;9.27;;;23.80;67.40;;;;;;6179971;28;80768;-58
2023/06/08 05:20:47;;;;;;;13.82;7.80;;;23.80;67.30;;;;;;6187022;28;82620;-60
2023/06/08 05:23:47;;;;;;;12.82;7.30;;;23.80;67.30;;;;;;6200809;28;80536;-58
2023/06/08 05:26:48;;;;;;;16.08;8.70;;;23.80;67.40;;;;;;6197586;28;83069;-60
2023/06/08 05:29:49;;;;;;;14.98;7.78;;;23.80;67.30;;;;;;6174507;28;83318;-62
2023/06/08 05:32:50;;;;;;;14.40;8.43;;;23.80;67.30;;;;;;6193900;28;85654;-65
2023/06/08 05:35:50;;;;;;;12.75;8.25;;;23.80;67.40;;;;;;6187218;28;81235;-69
2023/06/08 05:38:50;;;;;;;15.90;8.48;;;23.80;67.40;;;;;;6190855;28;81221;-68
2023/06/08 05:41:51;;;;;;;12.43;8.35;;;23.80;67.30;;;;;;6181419;28;80344;-68
2023/06/08 05:44:52;;;;;;;13.73;8.52;;;23.80;67.20;;;;;;6185445;28;80305;-64
2023/06/08 05:47:52;;;;;;;15.48;9.82;;;23.80;67.30;;;;;;6195217;28;80669;-67
2023/06/08 05:50:53;;;;;;;15.13;8.48;;;23.80;67.30;;;;;;6191529;28;81456;-74
2023/06/08 05:53:53;;;;;;;18.50;9.15;;;23.80;67.30;;;;;;6202287;28;80720;-71
2023/06/08 05:56:54;;;;;;;14.45;8.35;;;23.80;67.30;;;;;;6194616;28;81026;-73
2023/06/08 05:59:54;;;;;;;16.75;8.77;;;23.80;67.80;;;;;;6189662;28;80582;-70
2023/06/08 06:02:55;;;;;;;14.52;8.85;;;23.80;66.90;;;;;;6188449;28;81109;-66
2023/06/08 06:05:55;;;;;;;14.57;9.05;;;23.80;66.90;;;;;;6194109;28;81600;-68
2023/06/08 06:08:56;;;;;;;14.45;9.43;;;23.80;67.10;;;;;;6187103;28;80710;-65
2023/06/08 06:11:56;;;;;;;23.45;14.18;;;23.80;67.10;;;;;;6187023;28;80497;-64
2023/06/08 06:14:57;;;;;;;24.70;15.80;;;23.80;66.60;;;;;;6175270;28;87551;-62
2023/06/08 06:17:58;;;;;;;21.13;14.02;;;23.60;66.60;;;;;;6186862;28;83411;-60
2023/06/08 06:20:59;;;;;;;26.98;14.45;;;23.70;67.30;;;;;;6197736;28;83218;-62
2023/06/08 06:23:59;;;;;;;21.23;12.98;;;23.70;67.40;;;;;;6197508;28;83142;-63
2023/06/08 06:27:00;;;;;;;28.35;13.68;;;23.60;67.70;;;;;;6197594;28;84163;-65
2023/06/08 06:30:01;;;;;;;20.88;14.30;;;23.70;67.10;;;;;;6193936;28;83997;-70
2023/06/08 06:33:01;;;;;;;24.40;14.70;;;23.70;67.10;;;;;;6189670;28;86129;-68
2023/06/08 06:36:02;;;;;;;25.85;14.25;;;23.60;67.60;;;;;;6191278;28;82761;-67
2023/06/08 06:39:02;;;;;;;21.00;14.40;;;23.70;67.60;;;;;;6187227;28;82953;-68
2023/06/08 06:42:03;;;;;;;22.73;13.55;;;23.70;67.90;;;;;;6179152;28;84773;-70
2023/06/08 06:45:14;;;;;;;23.17;13.85;;;23.70;68.10;;;;;;6180626;28;85490;-65
2023/06/08 06:48:15;;;;;;;25.58;14.32;;;23.70;68.10;;;;;;6189953;28;83030;-68
2023/06/08 06:51:15;;;;;;;24.55;13.70;;;23.70;67.60;;;;;;6182721;28;83590;-68
2023/06/08 06:54:16;;;;;;;21.85;13.95;;;23.70;67.50;;;;;;6170729;28;83124;-67
2023/06/08 06:57:16;;;;;;;18.33;12.30;;;23.70;67.40;;;;;;6181715;28;84149;-67
2023/06/08 07:00:17;;;;;;;19.83;12.82;;;23.70;67.50;;;;;;6194350;28;83510;-72
2023/06/08 07:03:18;;;;;;;20.20;12.70;;;23.70;67.50;;;;;;6179446;28;87363;-65
2023/06/08 07:06:23;;;;;;;22.65;13.77;;;23.70;67.70;;;;;;6189369;28;84643;-67
2023/06/08 07:09:24;;;;;;;23.08;14.23;;;23.70;68.80;;;;;;6190755;28;82902;-63
2023/06/08 07:12:25;;;;;;;20.10;12.48;;;23.70;69.40;;;;;;6188729;28;83464;-70
2023/06/08 07:15:27;;;;;;;28.58;14.55;;;23.70;69.00;;;;;;6171689;28;86239;-69
2023/06/08 07:18:27;;;;;;;18.70;12.45;;;23.60;67.90;;;;;;6180395;28;85186;-66
2023/06/08 07:21:28;;;;;;;24.33;14.30;;;23.60;68.50;;;;;;6182923;28;87225;-66
2023/06/08 07:24:28;;;;;;;22.25;12.45;;;23.60;68.20;;;;;;6189948;28;84476;-67
2023/06/08 07:27:29;;;;;;;20.92;13.18;;;23.60;68.00;;;;;;6195215;28;83445;-65
2023/06/08 07:30:31;;;;;;;21.05;13.45;;;23.60;68.10;;;;;;6190102;28;84045;-70
2023/06/08 07:33:32;;;;;;;23.20;12.73;;;23.60;68.70;;;;;;6160140;28;87407;-68
2023/06/08 07:36:32;;;;;;;22.77;13.95;;;23.60;69.00;;;;;;6167439;28;83439;-64
2023/06/08 07:39:33;;;;;;;24.88;14.27;;;23.60;69.30;;;;;;6169820;28;85079;-68
2023/06/08 07:42:33;;;;;;;20.58;13.10;;;23.60;68.40;;;;;;6175931;28;84851;-70
2023/06/08 07:45:34;;;;;;;20.90;13.13;;;23.60;69.00;;;;;;6168264;28;84018;-72
2023/06/08 07:48:34;;;;;;;22.23;14.32;;;23.60;69.50;;;;;;6173583;28;84297;-72
2023/06/08 07:51:35;;;;;;;19.83;12.95;;;23.60;68.90;;;;;;6176937;28;84409;-64
2023/06/08 07:54:36;;;;;;;21.90;13.45;;;23.60;68.90;;;;;;6171393;28;84065;-67
2023/06/08 07:57:36;;;;;;;18.52;12.45;;;23.60;69.40;;;;;;6160578;28;84206;-67
2023/06/08 08:00:39;;;;;;;23.45;13.88;;;23.60;69.80;;;;;;6178439;28;84154;-64
2023/06/08 08:03:39;;;;;;;19.08;13.40;;;23.60;69.20;;;;;;6172556;28;84638;-68
2023/06/08 08:06:40;;;;;;;20.75;13.32;;;23.60;69.40;;;;;;6179152;28;84623;-65
2023/06/08 08:09:43;;;;;;;25.48;17.10;;;23.60;69.30;;;;;;6156139;28;87412;-64
2023/06/08 08:12:44;;;;;;;30.67;18.17;;;23.60;70.70;;;;;;6192444;28;84234;-64
2023/06/08 08:15:45;;;;;;;26.90;16.05;;;23.50;70.80;;;;;;6188183;28;83545;-65
2023/06/08 08:18:46;;;;;;;25.27;16.02;;;23.50;70.50;;;;;;6191799;28;83096;-66
2023/06/08 08:21:46;;;;;;;35.15;18.27;;;23.50;70.20;;;;;;6200505;28;83108;-60
2023/06/08 08:24:47;;;;;;;26.25;14.68;;;23.50;69.30;;;;;;6180887;28;83452;-64
2023/06/08 08:27:47;;;;;;;22.73;14.55;;;23.50;69.60;;;;;;6198065;28;83340;-66
2023/06/08 08:30:48;;;;;;;20.67;14.50;;;23.60;70.20;;;;;;6194575;28;83740;-64
2023/06/08 08:33:48;;;;;;;23.83;15.02;;;23.60;69.80;;;;;;6180157;28;84283;-65
2023/06/08 08:36:49;;;;;;;26.83;16.25;;;23.70;69.50;;;;;;6182244;28;83301;-66
2023/06/08 08:39:49;;;;;;;27.42;16.88;;;23.70;68.80;;;;;;6189693;28;86438;-60
2023/06/08 08:42:50;;;;;;;24.02;16.23;;;23.70;69.80;;;;;;6184417;28;84268;-68
2023/06/08 08:45:51;;;;;;;31.50;18.98;;;23.70;68.70;;;;;;6177691;28;84487;-65
2023/06/08 08:48:53;;;;;;;27.50;17.65;;;23.70;69.20;;;;;;6179907;28;84441;-65
2023/06/08 08:51:54;;;;;;;22.55;17.48;;;23.80;69.50;;;;;;6178614;28;82831;-66
2023/06/08 08:54:55;;;;;;;28.10;17.33;;;23.80;70.70;;;;;;6182140;28;83419;-69
2023/06/08 08:57:56;;;;;;;27.65;16.90;;;23.80;69.50;;;;;;6189733;28;83294;-71
2023/06/08 09:00:56;;;;;;;25.20;16.23;;;23.80;70.80;;;;;;6173297;28;83811;-68
2023/06/08 09:03:57;;;;;;;26.35;16.30;;;23.80;71.50;;;;;;6192889;28;83464;-72
2023/06/08 09:06:57;;;;;;;23.55;15.82;;;23.90;72.50;;;;;;6188984;28;83434;-67
2023/06/08 09:09:58;;;;;;;25.83;16.02;;;23.90;72.20;;;;;;6192150;28;85573;-62
2023/06/08 09:12:58;;;;;;;27.08;15.13;;;24.00;72.80;;;;;;6191526;28;84312;-67
2023/06/08 09:15:59;;;;;;;30.23;17.42;;;24.00;72.00;;;;;;6196820;28;85702;-72
2023/06/08 09:18:59;;;;;;;26.65;15.38;;;24.00;72.00;;;;;;6192853;28;83124;-75
2023/06/08 09:22:01;;;;;;;24.85;15.38;;;24.00;70.90;;;;;;6185192;28;83533;-72
2023/06/08 09:25:03;;;;;;;23.83;14.93;;;24.00;69.50;;;;;;6197620;28;83039;-73
2023/06/08 09:28:04;;;;;;;23.60;13.70;;;24.00;69.50;;;;;;6192773;28;82923;-66
2023/06/08 09:31:04;;;;;;;21.17;12.73;;;24.00;70.10;;;;;;6180663;28;83653;-69
2023/06/08 09:34:05;;;;;;;20.73;13.90;;;24.00;70.20;;;;;;6189869;28;82824;-67
2023/06/08 09:37:06;;;;;;;20.85;13.85;;;24.00;69.10;;;;;;6183037;28;83331;-71
2023/06/08 09:40:08;;;;;;;20.35;14.68;;;24.00;69.50;;;;;;6191423;28;83692;-70
2023/06/08 09:43:09;;;;;;;24.38;13.75;;;24.00;69.20;;;;;;6198504;28;83561;-70
2023/06/08 09:46:13;;;;;;;22.17;14.20;;;24.10;68.90;;;;;;6193791;28;83001;-68
2023/06/08 09:49:13;;;;;;;25.02;15.00;;;24.10;68.90;;;;;;6196906;28;83346;-69
2023/06/08 09:52:14;;;;;;;25.92;16.15;;;24.10;68.30;;;;;;6194853;28;83472;-69
2023/06/08 09:55:14;;;;;;;20.52;15.20;;;24.10;67.90;;;;;;6195650;28;84126;-69
2023/06/08 09:58:15;;;;;;;28.52;14.55;;;24.10;68.20;;;;;;6192761;28;82807;-69
2023/06/08 10:01:16;;;;;;;22.92;13.93;;;24.00;66.70;;;;;;6193049;28;83442;-70
2023/06/08 10:04:17;;;;;;;25.02;15.30;;;24.00;66.80;;;;;;6187120;28;83989;-68
2023/06/08 10:07:19;;;;;;;20.58;14.38;;;24.10;67.30;;;;;;6181406;28;83110;-65
2023/06/08 10:10:19;;;;;;;21.05;14.23;;;24.00;66.50;;;;;;6179176;28;83457;-64
2023/06/08 10:13:20;;;;;;;22.55;14.07;;;24.00;66.70;;;;;;6195029;28;83108;-67
2023/06/08 10:16:20;;;;;;;24.25;15.00;;;24.00;66.30;;;;;;6193506;28;84335;-68
2023/06/08 10:19:21;;;;;;;17.52;13.35;;;24.10;66.40;;;;;;6197667;28;83283;-78
2023/06/08 10:22:21;;;;;;;22.50;14.35;;;24.10;66.40;;;;;;6190695;28;83066;-70
2023/06/08 10:25:22;;;;;;;22.38;13.70;;;24.10;66.40;;;;;;6189683;28;83478;-70
2023/06/08 10:28:22;;;;;;;21.25;14.30;;;24.20;65.70;;;;;;6192680;28;87463;-66
2023/06/08 10:31:23;;;;;;;19.60;13.77;;;24.20;65.80;;;;;;6187329;28;83212;-69
2023/06/08 10:34:23;;;;;;;21.00;13.57;;;24.20;65.10;;;;;;6180145;28;82608;-76
2023/06/08 10:37:25;;;;;;;18.10;12.60;;;24.30;65.20;;;;;;6189325;28;83579;-71
2023/06/08 10:40:25;;;;;;;17.20;12.55;;;24.30;65.20;;;;;;6182666;28;83791;-68
2023/06/08 10:43:26;;;;;;;18.98;13.20;;;24.30;64.30;;;;;;6189442;28;83302;-67
2023/06/08 10:46:28;;;;;;;26.08;12.65;;;24.30;64.40;;;;;;6171367;28;83590;-71
2023/06/08 10:49:30;;;;;;;21.05;12.90;;;24.40;65.80;;;;;;6186785;28;83461;-71
2023/06/08 10:52:30;;;;;;;18.70;12.25;;;24.30;64.00;;;;;;6176658;28;83988;-66
2023/06/08 10:55:31;;;;;;;20.80;12.55;;;24.30;64.20;;;;;;6183955;28;83944;-67
2023/06/08 10:58:31;;;;;;;19.10;11.50;;;24.20;64.60;;;;;;6185381;28;84261;-65
2023/06/08 11:01:32;;;;;;;15.93;11.23;;;24.30;63.60;;;;;;6167702;28;86228;-69
2023/06/08 11:04:32;;;;;;;13.07;9.80;;;24.40;62.80;;;;;;6192082;28;83992;-70
2023/06/08 11:07:33;;;;;;;14.40;9.98;;;24.40;61.50;;;;;;6194301;28;82751;-65
2023/06/08 11:10:33;;;;;;;16.60;10.05;;;24.20;60.80;;;;;;6181733;28;85026;-65
2023/06/08 11:13:34;;;;;;;15.45;9.88;;;24.20;61.70;;;;;;6194242;28;83159;-66
2023/06/08 11:16:35;;;;;;;16.73;10.38;;;24.30;61.90;;;;;;6190146;28;81938;-66
2023/06/08 11:19:35;;;;;;;12.60;9.65;;;24.30;61.80;;;;;;6197611;28;84107;-65
2023/06/08 11:22:36;;;;;;;14.98;10.15;;;24.40;61.40;;;;;;6196189;28;83214;-64
2023/06/08 11:25:36;;;;;;;19.25;10.50;;;24.40;61.30;;;;;;6198271;28;83226;-67
2023/06/08 11:28:39;;;;;;;15.95;10.45;;;24.50;61.40;;;;;;6201252;28;83372;-71
2023/06/08 11:31:42;;;;;;;13.52;9.40;;;24.50;60.60;;;;;;6199706;28;83264;-69
2023/06/08 11:34:46;;;;;;;11.98;9.23;;;24.60;60.70;;;;;;6193421;28;82877;-71
2023/06/08 11:37:46;;;;;;;13.18;10.50;;;24.60;60.40;;;;;;6200709;28;81029;-69
2023/06/08 11:40:47;;;;;;;17.15;11.15;;;24.60;60.40;;;;;;6193533;28;82841;-58
2023/06/08 11:43:47;;;;;;;15.57;11.93;;;24.60;60.80;;;;;;6189082;28;83203;-59
2023/06/08 11:46:48;;;;;;;15.57;11.15;;;24.50;60.60;;;;;;6194254;28;84291;-58
2023/06/08 11:49:48;;;;;;;15.57;10.52;;;24.60;60.60;;;;;;6177218;28;85305;-71
2023/06/08 11:52:49;;;;;;;19.75;11.93;;;24.70;61.00;;;;;;6154823;28;84577;-72
2023/06/08 11:55:50;;;;;;;20.70;11.63;;;24.70;61.80;;;;;;6178444;28;84309;-61
2023/06/08 11:58:50;;;;;;;19.63;12.60;;;24.80;62.70;;;;;;6176242;28;83693;-59
2023/06/08 12:01:51;;;;;;;19.90;13.10;;;24.90;66.10;;;;;;6173738;28;84299;-61
2023/06/08 12:04:53;;;;;;;18.52;11.63;;;24.90;63.90;;;;;;6172633;28;83422;-62
2023/06/08 12:07:55;;;;;;;16.52;11.70;;;25.00;63.20;;;;;;6173204;28;90749;-62
2023/06/08 12:10:56;;;;;;;18.83;11.25;;;25.10;65.20;;;;;;6179407;28;84538;-61
2023/06/08 12:13:57;;;;;;;25.00;12.20;;;25.10;63.70;;;;;;6173144;28;84082;-62
2023/06/08 12:16:58;;;;;;;17.80;10.45;;;25.20;62.30;;;;;;6175948;28;87082;-60
2023/06/08 12:19:58;;;;;;;14.27;9.13;;;25.10;61.50;;;;;;6179732;28;84161;-60
2023/06/08 12:22:59;;;;;;;17.33;8.60;;;25.10;61.10;;;;;;6176574;28;81947;-61
2023/06/08 12:25:59;;;;;;;10.40;8.15;;;25.10;59.30;;;;;;6183758;28;81980;-62
2023/06/08 12:29:00;;;;;;;18.80;10.50;;;25.00;59.60;;;;;;6167000;28;80752;-61
2023/06/08 12:32:01;;;;;;;15.75;9.30;;;25.10;59.30;;;;;;6178435;28;83480;-61
2023/06/08 12:35:02;;;;;;;10.68;8.25;;;25.10;58.30;;;;;;6181162;28;82928;-61
2023/06/08 12:38:03;;;;;;;11.30;8.25;;;25.10;57.50;;;;;;6195408;28;80497;-60
2023/06/08 12:41:04;;;;;;;12.82;8.57;;;25.10;57.90;;;;;;6192683;28;81439;-59
2023/06/08 12:44:04;;;;;;;10.30;8.32;;;25.10;57.30;;;;;;6194850;28;80697;-63
2023/06/08 12:47:05;;;;;;;11.10;8.50;;;25.10;57.20;;;;;;6190185;28;80454;-63
2023/06/08 12:50:06;;;;;;;9.60;7.88;;;25.10;57.70;;;;;;6190588;28;81043;-62
2023/06/08 12:53:07;;;;;;;12.15;8.20;;;25.00;57.90;;;;;;6195792;28;80740;-67
2023/06/08 12:56:08;;;;;;;10.68;8.25;;;25.00;58.00;;;;;;6197468;28;80269;-62
2023/06/08 12:59:09;;;;;;;10.30;8.48;;;24.90;59.00;;;;;;6183601;28;87529;-61
2023/06/08 13:02:09;;;;;;;9.63;8.07;;;24.90;59.50;;;;;;6177990;28;81625;-61
2023/06/08 13:05:10;;;;;;;11.70;8.30;;;24.90;59.90;;;;;;6196340;28;80616;-61
2023/06/08 13:08:10;;;;;;;12.43;8.32;;;24.80;60.00;;;;;;6191732;28;81264;-64
2023/06/08 13:11:11;;;;;;;10.93;8.73;;;24.80;60.20;;;;;;6188664;28;81183;-66
2023/06/08 13:14:12;;;;;;;12.48;8.85;;;24.80;60.20;;;;;;6195757;28;81218;-62
2023/06/08 13:17:13;;;;;;;9.90;8.68;;;24.80;60.30;;;;;;6196854;28;83919;-61
2023/06/08 13:20:14;;;;;;;13.98;9.20;;;24.70;60.50;;;;;;6198659;28;81261;-63
2023/06/08 13:23:14;;;;;;;12.27;9.32;;;24.70;60.70;;;;;;6191473;28;81922;-62
2023/06/08 13:26:15;;;;;;;11.63;8.48;;;24.70;61.10;;;;;;6193480;28;81314;-72
2023/06/08 13:29:19;;;;;;;15.25;9.07;;;24.70;61.40;;;;;;6198803;28;81500;-64
2023/06/08 13:32:20;;;;;;;11.75;8.48;;;24.60;62.30;;;;;;6198553;28;80495;-71
2023/06/08 13:35:21;;;;;;;14.40;9.30;;;24.60;61.70;;;;;;6192677;28;81038;-66
2023/06/08 13:38:21;;;;;;;15.50;9.07;;;24.60;62.30;;;;;;6189682;28;81517;-64
2023/06/08 13:41:22;;;;;;;11.27;8.57;;;24.60;63.00;;;;;;6192634;28;82335;-69
2023/06/08 13:44:24;;;;;;;17.42;9.88;;;24.60;62.70;;;;;;6184657;28;80522;-68
2023/06/08 13:47:25;;;;;;;14.32;9.80;;;24.60;62.60;;;;;;6182424;28;83492;-60
2023/06/08 13:50:27;;;;;;;14.27;9.02;;;24.60;62.80;;;;;;6175720;28;81217;-60
2023/06/08 13:53:27;;;;;;;11.70;8.75;;;24.60;62.70;;;;;;6174487;28;81618;-62
2023/06/08 13:56:28;;;;;;;15.27;9.13;;;24.60;62.70;;;;;;6169218;28;81280;-64
2023/06/08 13:59:29;;;;;;;14.65;8.50;;;24.70;62.50;;;;;;6170506;28;82209;-65
2023/06/08 14:02:30;;;;;;;18.80;9.40;;;24.70;62.60;;;;;;6152902;28;81587;-62
2023/06/08 14:05:30;;;;;;;17.95;14.48;;;24.70;62.70;;;;;;6176281;28;83602;-68
2023/06/08 14:08:31;;;;;;;20.40;17.77;;;24.80;62.60;;;;;;6169495;28;84372;-73
2023/06/08 14:11:31;;;;;;;18.17;14.50;;;24.80;61.70;;;;;;6154294;28;84323;-64
2023/06/08 14:14:32;;;;;;;15.02;11.80;;;24.70;61.70;;;;;;6173536;28;86540;-66
2023/06/08 14:17:32;;;;;;;20.00;13.75;;;24.80;61.60;;;;;;6170518;28;84790;-65
2023/06/08 14:20:34;;;;;;;12.88;10.40;;;24.90;61.70;;;;;;6151020;28;86818;-65
2023/06/08 14:23:35;;;;;;;13.05;10.45;;;24.80;61.70;;;;;;6178845;28;84733;-61
2023/06/08 14:26:35;;;;;;;12.60;9.80;;;24.90;61.70;;;;;;6179722;28;85704;-68
2023/06/08 14:29:36;;;;;;;11.68;9.40;;;24.80;61.50;;;;;;6180176;28;85963;-67
2023/06/08 14:32:37;;;;;;;12.07;9.07;;;24.80;61.00;;;;;;6163197;28;81292;-67
2023/06/08 14:35:37;;;;;;;15.38;8.23;;;24.80;61.40;;;;;;6176790;28;81568;-62
2023/06/08 14:38:38;;;;;;;11.98;8.75;;;24.70;61.20;;;;;;6186500;28;81616;-65
2023/06/08 14:41:40;;;;;;;11.00;8.57;;;24.70;61.70;;;;;;6182712;28;82285;-61
2023/06/08 14:44:40;;;;;;;11.15;8.70;;;24.70;61.90;;;;;;6182647;28;82001;-61
2023/06/08 14:47:41;;;;;;;11.95;8.95;;;24.70;61.50;;;;;;6176876;28;80860;-59
2023/06/08 14:50:41;;;;;;;16.45;8.05;;;24.60;61.90;;;;;;6175159;28;80918;-61
2023/06/08 14:53:42;;;;;;;10.40;8.73;;;24.60;62.50;;;;;;6194931;28;80388;-61
2023/06/08 14:56:42;;;;;;;10.90;8.18;;;24.70;62.60;;;;;;6185112;28;80381;-63
2023/06/08 14:59:43;;;;;;;17.55;9.18;;;24.60;62.90;;;;;;6192763;28;80681;-63
2023/06/08 15:02:43;;;;;;;12.00;8.00;;;24.60;62.70;;;;;;6196450;28;85263;-61
2023/06/08 15:05:46;;;;;;;13.50;7.68;;;24.50;63.40;;;;;;6197181;28;82023;-64
2023/06/08 15:08:47;;;;;;;11.02;7.55;;;24.40;63.90;;;;;;6198496;28;80968;-60
2023/06/08 15:11:47;;;;;;;12.80;7.97;;;24.60;63.80;;;;;;6198773;28;83207;-62
2023/06/08 15:14:48;;;;;;;11.25;8.07;;;24.60;63.10;;;;;;6192212;28;82071;-63
2023/06/08 15:17:48;;;;;;;9.48;7.15;;;24.50;63.20;;;;;;6179277;28;80383;-61
2023/06/08 15:20:49;;;;;;;9.98;7.75;;;24.40;63.70;;;;;;6195718;28;80876;-66
2023/06/08 15:23:49;;;;;;;13.52;7.47;;;24.60;63.40;;;;;;6200301;28;80322;-63